Time;durP1;ratioP1;P1;durP2;ratioP2;P2;SDS_P1;SDS_P2;PMS_P1;PMS_P2;Temp;Humidity;BMP_temperature;BMP_pressure;BME280_temperature;BME280_humidity;BME280_pressure;Samples;Min_cycle;Max_cycle;Signal;HPM_P1;HPM_P2
2022/12/12 00:00:48;;;;;;;41.30;17.00;;;;;;;5.45;100.00;100908.09;5011601;28;20069;-51
2022/12/12 00:03:13;;;;;;;42.45;17.52;;;;;;;5.37;100.00;100917.84;5012275;28;20031;-52
2022/12/12 00:05:39;;;;;;;37.70;17.17;;;;;;;5.33;100.00;100913.84;5015194;28;20098;-52
2022/12/12 00:08:05;;;;;;;41.50;17.88;;;;;;;5.18;100.00;100911.78;5015237;28;20045;-49
2022/12/12 00:10:30;;;;;;;46.87;18.10;;;;;;;5.11;100.00;100916.06;4998529;28;20050;-49
2022/12/12 00:12:56;;;;;;;42.80;20.20;;;;;;;5.24;100.00;100921.75;5015340;28;20038;-54
2022/12/12 00:15:22;;;;;;;44.07;18.30;;;;;;;5.48;100.00;100917.53;5014370;28;20034;-53
2022/12/12 00:17:47;;;;;;;41.08;18.33;;;;;;;5.33;100.00;100924.47;5011754;28;20062;-54
2022/12/12 00:20:13;;;;;;;42.03;17.73;;;;;;;5.15;100.00;100923.50;5011475;28;20034;-52
2022/12/12 00:22:39;;;;;;;31.75;13.43;;;;;;;5.04;100.00;100921.16;5011836;28;20085;-51
2022/12/12 00:25:06;;;;;;;37.93;15.00;;;;;;;5.02;100.00;100920.47;5013558;28;20046;-54
2022/12/12 00:27:32;;;;;;;41.10;16.92;;;;;;;4.98;100.00;100916.47;5009105;28;20090;-49
2022/12/12 00:29:58;;;;;;;36.83;16.95;;;;;;;4.99;100.00;100911.00;5009390;28;20042;-54
2022/12/12 00:32:24;;;;;;;43.27;18.33;;;;;;;4.88;100.00;100916.59;5012729;28;20061;-53
2022/12/12 00:34:50;;;;;;;41.70;19.30;;;;;;;5.31;100.00;100921.94;5010463;28;20272;-54
2022/12/12 00:37:16;;;;;;;43.23;18.37;;;;;;;5.18;100.00;100919.72;5009427;28;20038;-52
2022/12/12 00:39:42;;;;;;;41.58;17.15;;;;;;;4.98;100.00;100922.59;5009189;28;20034;-54
2022/12/12 00:42:08;;;;;;;48.47;19.23;;;;;;;5.00;100.00;100923.28;5008949;28;20048;-56
2022/12/12 00:44:34;;;;;;;42.63;18.42;;;;;;;4.93;100.00;100924.91;5010012;28;20014;-56
2022/12/12 00:46:59;;;;;;;42.83;18.00;;;;;;;4.92;100.00;100917.09;5009867;28;20102;-54
2022/12/12 00:49:24;;;;;;;43.93;19.47;;;;;;;5.11;100.00;100916.06;5012549;28;20038;-52
2022/12/12 00:51:51;;;;;;;40.22;18.75;;;;;;;5.15;100.00;100920.06;5009633;28;20331;-52
2022/12/12 00:54:16;;;;;;;47.33;17.50;;;;;;;4.99;100.00;100904.88;5013424;28;20053;-53
2022/12/12 00:56:41;;;;;;;40.83;17.23;;;;;;;5.00;100.00;100903.91;5009079;28;20063;-56
2022/12/12 00:59:07;;;;;;;43.75;19.58;;;;;;;5.03;100.00;100914.19;5010152;28;20094;-50
2022/12/12 01:01:34;;;;;;;43.90;18.88;;;;;;;5.02;100.00;100904.56;5006652;28;20057;-51
2022/12/12 01:04:03;;;;;;;47.95;20.48;;;;;;;5.01;100.00;100911.69;5010477;28;20034;-54
2022/12/12 01:06:29;;;;;;;48.45;19.13;;;;;;;4.79;100.00;100917.50;5011303;28;20038;-52
2022/12/12 01:08:55;;;;;;;44.95;18.33;;;;;;;4.70;100.00;100920.09;5008162;28;20034;-54
2022/12/12 01:11:21;;;;;;;46.43;19.80;;;;;;;4.59;100.00;100922.97;5013788;28;20090;-54
2022/12/12 01:13:49;;;;;;;59.00;20.98;;;;;;;4.53;100.00;100918.31;5008413;28;20026;-53
2022/12/12 01:16:14;;;;;;;45.53;18.73;;;;;;;4.29;100.00;100933.00;5008269;28;20127;-51
2022/12/12 01:18:41;;;;;;;42.95;18.80;;;;;;;4.55;100.00;100927.78;5011003;28;20026;-54
2022/12/12 01:21:11;;;;;;;;;;;;;;;4.38;100.00;100937.41;5010980;28;20073;-53
2022/12/12 01:23:38;;;;;;;46.90;21.08;;;;;;;4.42;100.00;100932.63;5008471;28;19917;-51
2022/12/12 01:26:08;;;;;;;46.78;18.48;;;;;;;4.32;100.00;100943.28;5008146;28;20034;-54
2022/12/12 01:28:35;;;;;;;50.30;22.13;;;;;;;4.48;100.00;100950.53;5012433;28;20042;-51
2022/12/12 01:31:00;;;;;;;47.13;19.42;;;;;;;4.18;100.00;100952.59;5006635;28;20046;-52
2022/12/12 01:33:26;;;;;;;35.50;14.87;;;;;;;4.40;100.00;100955.78;5011295;28;20114;-54
2022/12/12 01:35:53;;;;;;;48.78;20.20;;;;;;;4.39;100.00;100964.72;5007137;28;20271;-55
2022/12/12 01:38:18;;;;;;;49.28;20.55;;;;;;;4.41;100.00;100960.94;5014597;28;20102;-53
2022/12/12 01:40:44;;;;;;;47.88;21.48;;;;;;;4.31;100.00;100965.47;5012513;28;20038;-52
2022/12/12 01:43:15;;;;;;;40.20;17.73;;;;;;;4.37;100.00;100970.16;5010597;28;20042;-56
2022/12/12 01:45:59;;;;;;;50.85;20.70;;;;;;;4.25;100.00;100971.38;5009053;28;20034;-55
2022/12/12 01:48:44;;;;;;;49.00;19.95;;;;;;;4.23;100.00;100975.97;5010555;28;20053;-50
2022/12/12 01:51:15;;;;;;;48.53;21.38;;;;;;;4.27;100.00;100975.53;5006727;28;20102;-54
2022/12/12 01:53:42;;;;;;;48.70;19.23;;;;;;;4.44;100.00;100976.53;5010604;28;20041;-54
2022/12/12 01:56:11;;;;;;;52.72;19.05;;;;;;;5.07;100.00;100973.00;5010704;28;20034;-53
2022/12/12 01:58:40;;;;;;;50.67;20.80;;;;;;;4.36;100.00;100970.31;5014623;28;20038;-54
2022/12/12 02:01:06;;;;;;;55.50;21.33;;;;;;;4.02;100.00;100974.44;5014486;28;20027;-54
2022/12/12 02:03:32;;;;;;;49.47;20.80;;;;;;;4.18;100.00;100973.78;4997987;28;20026;-55
2022/12/12 02:06:01;;;;;;;58.70;21.53;;;;;;;4.49;100.00;100972.56;5014322;28;20037;-54
2022/12/12 02:08:28;;;;;;;54.42;21.33;;;;;;;4.52;100.00;100977.56;5013142;28;20101;-53
2022/12/12 02:10:54;;;;;;;47.22;20.00;;;;;;;4.53;100.00;100971.28;5013529;28;20038;-51
2022/12/12 02:13:24;;;;;;;52.20;19.87;;;;;;;4.07;100.00;100972.16;5014796;28;20042;-50
2022/12/12 02:16:10;;;;;;;44.33;17.98;;;;;;;4.04;100.00;100977.78;5013559;28;20093;-48
2022/12/12 02:19:00;;;;;;;46.85;19.23;;;;;;;4.55;100.00;100980.75;5011205;28;20030;-51
2022/12/12 02:21:40;;;;;;;50.17;22.50;;;;;;;4.55;100.00;100975.47;5014071;28;20030;-53
2022/12/12 02:24:11;;;;;;;49.13;21.77;;;;;;;5.22;100.00;100974.09;5014314;28;20026;-51
2022/12/12 02:27:11;;;;;;;55.58;20.23;;;;;;;4.76;100.00;100971.66;5011607;28;20093;-49
2022/12/12 02:29:51;;;;;;;52.55;19.77;;;;;;;4.67;100.00;100978.69;5013559;28;20046;-55
2022/12/12 02:32:37;;;;;;;52.70;21.73;;;;;;;4.51;100.00;100974.09;4995294;28;20042;-53
2022/12/12 02:35:19;;;;;;;49.92;19.92;;;;;;;4.30;100.00;100972.59;5001961;28;20034;-51
2022/12/12 02:38:19;;;;;;;51.47;21.85;;;;;;;4.33;100.00;100974.09;4998324;28;20039;-50
2022/12/12 02:40:53;;;;;;;61.60;23.13;;;;;;;4.74;100.00;100971.78;4998900;28;20026;-52
2022/12/12 02:43:33;;;;;;;50.63;20.27;;;;;;;4.48;100.00;100979.69;4998601;28;20042;-52
2022/12/12 02:46:04;;;;;;;54.47;19.65;;;;;;;4.62;100.00;100983.63;4997076;28;20039;-49
2022/12/12 02:48:44;;;;;;;54.17;20.75;;;;;;;4.34;100.00;100977.56;4998355;28;20034;-53
2022/12/12 02:51:12;;;;;;;49.53;21.98;;;;;;;4.15;100.00;100976.72;4998536;28;20038;-53
2022/12/12 02:53:38;;;;;;;56.00;21.98;;;;;;;4.23;100.00;100978.63;5001474;28;20031;-51
2022/12/12 02:56:41;;;;;;;56.58;22.85;;;;;;;4.65;100.00;100979.81;4997894;28;20063;-51
2022/12/12 02:59:11;;;;;;;57.03;21.02;;;;;;;4.04;100.00;100975.13;4996508;28;20030;-52
2022/12/12 03:02:20;;;;;;;57.10;22.10;;;;;;;4.18;100.00;100971.13;4996451;28;20039;-51
2022/12/12 03:08:07;;;;;;;55.83;21.98;;;;;;;4.94;100.00;100974.25;4998645;28;20054;-54
2022/12/12 03:11:02;;;;;;;57.92;21.17;;;;;;;3.99;100.00;100974.75;4995940;28;20038;-51
2022/12/12 03:13:55;;;;;;;60.28;22.02;;;;;;;4.78;100.00;100977.63;4995513;28;20042;-49
2022/12/12 03:16:31;;;;;;;54.97;20.80;;;;;;;4.73;100.00;100972.78;4998798;28;20030;-52
2022/12/12 03:19:23;;;;;;;66.20;22.48;;;;;;;4.52;100.00;100980.22;4997300;28;20042;-50
2022/12/12 03:22:25;;;;;;;54.35;21.10;;;;;;;4.87;100.00;100974.03;4994287;28;20051;-50
2022/12/12 03:25:00;;;;;;;52.75;22.70;;;;;;;5.09;100.00;100973.72;4977707;28;20031;-52
2022/12/12 03:27:37;;;;;;;56.40;21.85;;;;;;;4.26;100.00;100973.84;4996319;28;20042;-48
2022/12/12 03:30:07;;;;;;;62.28;21.55;;;;;;;4.35;100.00;100980.06;5001574;28;20042;-49
2022/12/12 03:32:39;;;;;;;59.20;22.25;;;;;;;5.06;100.00;100979.28;5001521;28;20034;-51
2022/12/12 03:35:37;;;;;;;75.80;24.80;;;;;;;4.01;100.00;100986.81;4998329;28;20037;-48
2022/12/12 03:38:24;;;;;;;59.78;21.00;;;;;;;4.03;100.00;100978.75;4998784;28;20034;-52
2022/12/12 03:40:57;;;;;;;60.15;23.00;;;;;;;4.53;100.00;100988.03;4997975;28;20034;-51
2022/12/12 03:43:30;;;;;;;55.75;21.33;;;;;;;4.83;100.00;100983.28;4998466;28;20034;-52
2022/12/12 03:46:05;;;;;;;57.13;23.35;;;;;;;4.68;100.00;100979.53;4998901;28;20039;-55
2022/12/12 03:48:35;;;;;;;54.53;21.60;;;;;;;4.25;100.00;100979.31;4999163;28;20089;-49
2022/12/12 03:51:06;;;;;;;61.17;24.27;;;;;;;4.61;100.00;100981.13;5002671;28;20035;-52
2022/12/12 03:53:50;;;;;;;60.45;22.23;;;;;;;3.65;100.00;100977.97;4994915;28;20095;-50
2022/12/12 03:56:25;;;;;;;67.78;24.48;;;;;;;3.66;100.00;100982.28;4998718;28;20041;-49
2022/12/12 03:59:08;;;;;;;55.05;22.77;;;;;;;4.44;100.00;100988.91;5000749;28;20047;-50
2022/12/12 04:01:50;;;;;;;62.28;21.27;;;;;;;4.58;100.00;101000.78;4995485;28;20038;-53
2022/12/12 04:04:26;;;;;;;50.70;21.52;;;;;;;4.54;100.00;100992.34;4999199;28;20042;-53
2022/12/12 04:07:21;;;;;;;65.40;23.90;;;;;;;4.26;100.00;100994.22;4998810;28;20067;-51
2022/12/12 04:12:57;;;;;;;59.67;23.20;;;;;;;4.09;100.00;100995.84;4994695;28;20030;-54
2022/12/12 04:16:04;;;;;;;53.75;22.25;;;;;;;4.12;100.00;100992.91;4996541;28;20031;-51
2022/12/12 04:18:40;;;;;;;57.50;22.63;;;;;;;3.74;100.00;100998.28;4988638;28;20073;-50
2022/12/12 04:24:14;;;;;;;56.83;24.50;;;;;;;3.77;100.00;100994.47;4996628;28;20098;-53
2022/12/12 04:26:55;;;;;;;63.33;23.83;;;;;;;3.99;100.00;100996.72;4996264;28;20038;-52
2022/12/12 04:29:27;;;;;;;64.40;23.02;;;;;;;4.06;100.00;101001.44;5001661;28;20035;-52
2022/12/12 04:32:01;;;;;;;58.75;22.38;;;;;;;3.95;100.00;100995.38;5012909;28;20041;-51
2022/12/12 04:34:54;;;;;;;58.13;21.38;;;;;;;3.81;100.00;101003.81;5012991;28;20045;-53
2022/12/12 04:37:28;;;;;;;57.72;22.40;;;;;;;3.82;100.00;101002.84;5011657;28;20043;-47
2022/12/12 04:39:58;;;;;;;58.83;23.67;;;;;;;3.31;100.00;100997.84;5011214;28;20045;-52
2022/12/12 04:42:29;;;;;;;58.63;22.83;;;;;;;3.03;100.00;101002.25;5012619;28;20034;-50
2022/12/12 04:45:03;;;;;;;57.92;23.05;;;;;;;3.34;100.00;101012.59;5012891;28;20053;-53
2022/12/12 04:47:30;;;;;;;59.30;21.38;;;;;;;3.64;100.00;101013.34;5012629;28;20045;-48
2022/12/12 04:49:58;;;;;;;52.58;21.83;;;;;;;3.62;100.00;101005.56;5013296;28;20111;-54
2022/12/12 04:52:25;;;;;;;62.03;22.95;;;;;;;3.42;100.00;101000.34;5014290;28;20042;-52
2022/12/12 04:55:00;;;;;;;69.88;24.20;;;;;;;3.22;100.00;101007.47;5014007;28;20057;-54
2022/12/12 04:57:34;;;;;;;59.35;23.55;;;;;;;3.57;100.00;101003.34;5015447;28;20045;-51
2022/12/12 05:00:00;;;;;;;59.70;23.88;;;;;;;3.09;100.00;101005.13;5016186;28;20060;-52
2022/12/12 05:02:36;;;;;;;58.33;23.38;;;;;;;3.49;100.00;101003.25;5016351;28;20042;-54
2022/12/12 05:05:09;;;;;;;67.10;26.27;;;;;;;3.33;100.00;101003.00;4998154;28;20053;-52
2022/12/12 05:07:38;;;;;;;65.75;23.60;;;;;;;3.65;100.00;101004.41;5013587;28;20041;-53
2022/12/12 05:10:08;;;;;;;62.92;24.25;;;;;;;3.40;100.00;101002.28;5014969;28;20149;-51
2022/12/12 05:12:46;;;;;;;57.78;22.48;;;;;;;3.50;100.00;101001.41;5016014;28;20038;-51
2022/12/12 05:15:13;;;;;;;67.88;22.70;;;;;;;3.18;100.00;101007.94;5015259;28;20034;-53
2022/12/12 05:17:51;;;;;;;58.63;22.25;;;;;;;3.32;100.00;100999.53;4997424;28;20090;-55
2022/12/12 05:20:17;;;;;;;60.05;22.48;;;;;;;3.17;100.00;100999.16;5015253;28;20082;-49
2022/12/12 05:22:43;;;;;;;67.03;24.50;;;;;;;2.97;100.00;100999.19;5014740;28;20031;-52
2022/12/12 05:25:09;;;;;;;66.83;23.40;;;;;;;2.71;100.00;101007.69;5015455;28;20044;-50
2022/12/12 05:27:35;;;;;;;64.80;24.63;;;;;;;2.67;100.00;101006.31;5014313;28;20041;-53
2022/12/12 05:30:00;;;;;;;62.97;26.07;;;;;;;2.70;100.00;101000.72;5013730;28;20046;-52
2022/12/12 05:32:26;;;;;;;47.75;17.75;;;;;;;2.92;100.00;101008.53;5014921;28;20073;-56
2022/12/12 05:34:51;;;;;;;65.90;24.27;;;;;;;2.78;100.00;101001.88;4997780;28;20058;-54
2022/12/12 05:37:17;;;;;;;67.53;24.87;;;;;;;2.93;100.00;101005.72;5014309;28;20084;-53
2022/12/12 05:39:42;;;;;;;60.00;22.67;;;;;;;2.80;100.00;101005.19;5014190;28;20022;-51
2022/12/12 05:42:08;;;;;;;50.90;21.03;;;;;;;2.80;100.00;101002.56;5014595;28;20034;-53
2022/12/12 05:44:33;;;;;;;59.83;23.38;;;;;;;2.70;100.00;101008.66;5014248;28;20124;-50
2022/12/12 05:46:59;;;;;;;54.97;19.42;;;;;;;3.17;100.00;101015.00;5012616;28;20041;-50
2022/12/12 05:49:25;;;;;;;60.53;22.20;;;;;;;2.97;100.00;101001.00;5014015;28;20085;-53
2022/12/12 05:51:50;;;;;;;64.88;22.50;;;;;;;2.89;100.00;101004.34;5013836;28;20030;-54
2022/12/12 05:54:16;;;;;;;46.73;19.17;;;;;;;3.17;100.00;101014.19;5013976;28;20061;-55
2022/12/12 05:56:41;;;;;;;69.97;25.23;;;;;;;3.30;100.00;101018.19;5013946;28;20306;-52
2022/12/12 05:59:07;;;;;;;62.23;22.63;;;;;;;3.01;100.00;101016.44;5014363;28;20050;-53
2022/12/12 06:01:33;;;;;;;63.33;24.50;;;;;;;3.08;100.00;101018.50;4996967;28;20486;-50
2022/12/12 06:03:58;;;;;;;63.45;24.38;;;;;;;2.97;100.00;101022.97;5013257;28;21179;-52
2022/12/12 06:06:24;;;;;;;68.77;26.13;;;;;;;2.90;100.00;101016.56;5013531;28;20026;-56
2022/12/12 06:08:50;;;;;;;61.10;23.02;;;;;;;2.86;100.00;101023.13;5012022;28;20178;-54
2022/12/12 06:11:16;;;;;;;60.03;24.23;;;;;;;2.98;100.00;101016.69;5011868;28;20069;-55
2022/12/12 06:13:41;;;;;;;56.55;20.13;;;;;;;3.27;100.00;101022.91;5013799;28;20034;-54
2022/12/12 06:16:08;;;;;;;45.40;18.93;;;;;;;2.71;100.00;101020.88;5013680;28;20110;-53
2022/12/12 06:18:35;;;;;;;56.30;24.20;;;;;;;2.70;100.00;101026.31;5013531;28;20038;-54
2022/12/12 06:21:02;;;;;;;52.10;21.38;;;;;;;2.54;100.00;101025.06;5012048;28;20057;-53
2022/12/12 06:23:28;;;;;;;61.25;22.27;;;;;;;2.95;100.00;101030.19;5013427;28;20044;-53
2022/12/12 06:25:53;;;;;;;51.03;20.95;;;;;;;2.69;100.00;101033.41;5013804;28;20054;-54
2022/12/12 06:28:19;;;;;;;47.53;18.25;;;;;;;2.75;100.00;101034.66;5013562;28;20073;-54
2022/12/12 06:30:44;;;;;;;51.15;17.38;;;;;;;2.71;100.00;101036.75;5012455;28;20093;-53
2022/12/12 06:33:10;;;;;;;56.23;21.80;;;;;;;2.68;100.00;101038.84;5012033;28;20041;-53
2022/12/12 06:35:35;;;;;;;57.35;24.33;;;;;;;2.89;100.00;101041.31;5012180;28;20042;-54
2022/12/12 06:38:01;;;;;;;60.42;25.13;;;;;;;2.85;100.00;101043.41;5013018;28;20053;-50
2022/12/12 06:40:27;;;;;;;61.50;24.17;;;;;;;2.73;100.00;101034.78;5013690;28;20026;-54
2022/12/12 06:42:52;;;;;;;58.20;23.23;;;;;;;2.82;100.00;101041.03;4996009;28;20044;-55
2022/12/12 06:45:17;;;;;;;65.87;24.47;;;;;;;3.07;100.00;101043.28;5013078;28;20038;-49
2022/12/12 06:47:43;;;;;;;63.78;24.02;;;;;;;3.08;100.00;101044.94;5012666;28;20081;-53
2022/12/12 06:50:09;;;;;;;66.10;23.57;;;;;;;2.66;100.00;101051.34;4979725;28;20098;-51
2022/12/12 06:52:35;;;;;;;59.43;23.73;;;;;;;2.65;100.00;101053.16;5012227;28;20038;-54
2022/12/12 06:55:01;;;;;;;48.10;19.00;;;;;;;2.85;100.00;101056.63;5010079;28;20048;-51
2022/12/12 06:57:26;;;;;;;67.10;22.55;;;;;;;2.77;100.00;101058.28;5012267;28;20030;-52
2022/12/12 06:59:52;;;;;;;56.43;23.13;;;;;;;2.17;100.00;101056.53;5012708;28;20054;-54
2022/12/12 07:02:18;;;;;;;57.33;22.90;;;;;;;2.12;100.00;101059.56;5012130;28;20319;-51
2022/12/12 07:04:44;;;;;;;58.83;24.90;;;;;;;2.62;100.00;101058.72;5012496;28;20271;-53
2022/12/12 07:07:09;;;;;;;56.67;24.23;;;;;;;2.73;100.00;101061.19;5012838;28;20057;-49
2022/12/12 07:09:35;;;;;;;61.08;22.63;;;;;;;2.47;100.00;101062.72;5012530;28;20030;-56
2022/12/12 07:12:01;;;;;;;64.07;23.70;;;;;;;2.47;100.00;101070.63;5012312;28;20062;-49
2022/12/12 07:14:26;;;;;;;71.33;24.03;;;;;;;2.11;100.00;101071.94;4995705;28;20049;-51
2022/12/12 07:16:52;;;;;;;55.22;22.58;;;;;;;2.44;100.00;101075.22;5011943;28;20037;-49
2022/12/12 07:19:17;;;;;;;69.27;23.70;;;;;;;2.55;100.00;101066.34;5012875;28;20131;-54
2022/12/12 07:21:43;;;;;;;63.15;21.92;;;;;;;2.55;100.00;101076.91;4995755;28;20038;-52
2022/12/12 07:24:09;;;;;;;62.78;24.17;;;;;;;2.32;100.00;101084.22;5012679;28;20062;-51
2022/12/12 07:26:35;;;;;;;58.08;23.15;;;;;;;2.53;100.00;101092.03;5012513;28;20106;-48
2022/12/12 07:29:04;;;;;;;65.57;21.93;;;;;;;2.51;100.00;101091.34;5012408;28;20034;-51
2022/12/12 07:31:30;;;;;;;63.88;22.65;;;;;;;2.38;100.00;101088.97;4995824;28;20291;-52
2022/12/12 07:33:56;;;;;;;51.80;22.63;;;;;;;2.46;100.00;101092.72;5012761;28;20145;-53
2022/12/12 07:36:21;;;;;;;56.87;21.50;;;;;;;2.06;100.00;101097.06;5012599;28;20030;-50
2022/12/12 07:38:47;;;;;;;60.17;22.37;;;;;;;2.09;100.00;101094.16;5013067;28;20256;-51
2022/12/12 07:41:16;;;;;;;54.85;22.42;;;;;;;2.11;100.00;101087.78;5012650;28;20026;-51
2022/12/12 07:43:45;;;;;;;58.47;22.85;;;;;;;2.00;100.00;101098.41;4995456;28;20046;-53
2022/12/12 07:46:15;;;;;;;60.72;22.83;;;;;;;2.03;100.00;101095.50;5012626;28;20049;-54
2022/12/12 07:48:41;;;;;;;67.97;23.40;;;;;;;2.02;100.00;101091.19;5012218;28;20038;-56
2022/12/12 07:51:06;;;;;;;69.18;22.25;;;;;;;2.23;100.00;101098.22;5011532;28;20041;-53
2022/12/12 07:53:32;;;;;;;55.80;17.73;;;;;;;2.43;100.00;101094.66;5012558;28;20045;-50
2022/12/12 07:55:57;;;;;;;67.37;25.60;;;;;;;2.33;100.00;101101.75;5012420;28;20049;-50
2022/12/12 07:58:23;;;;;;;58.65;21.92;;;;;;;2.19;100.00;101107.38;5012813;28;20046;-53
2022/12/12 08:00:49;;;;;;;54.78;18.42;;;;;;;2.25;100.00;101104.19;5012039;28;20042;-51
2022/12/12 08:03:14;;;;;;;71.97;26.63;;;;;;;2.42;100.00;101100.91;5011715;28;20034;-50
2022/12/12 08:05:41;;;;;;;63.72;23.40;;;;;;;2.26;100.00;101098.78;5011088;28;20038;-50
2022/12/12 08:08:07;;;;;;;60.47;22.75;;;;;;;2.65;100.00;101105.97;5012343;28;20031;-54
2022/12/12 08:10:33;;;;;;;66.65;21.77;;;;;;;2.26;100.00;101111.13;5012613;28;20042;-51
2022/12/12 08:12:58;;;;;;;67.00;23.80;;;;;;;1.89;100.00;101116.97;5012555;28;20070;-51
2022/12/12 08:15:24;;;;;;;69.65;23.38;;;;;;;1.94;100.00;101114.78;5012765;28;20027;-51
2022/12/12 08:17:50;;;;;;;65.30;22.27;;;;;;;1.96;100.00;101113.69;5012263;28;20073;-50
2022/12/12 08:20:16;;;;;;;54.00;24.42;;;;;;;1.95;100.00;101106.72;5012009;28;20045;-51
2022/12/12 08:22:42;;;;;;;55.17;23.17;;;;;;;2.08;100.00;101110.94;5011568;28;20038;-52
2022/12/12 08:25:08;;;;;;;;;;;;;;;2.06;100.00;101113.69;5014273;28;20046;-51
2022/12/12 08:27:34;;;;;;;58.57;22.63;;;;;;;2.08;100.00;101117.06;5016386;28;19953;-51
2022/12/12 08:30:00;;;;;;;55.30;22.25;;;;;;;2.33;100.00;101114.94;5015754;28;20055;-50
2022/12/12 08:32:25;;;;;;;55.23;18.57;;;;;;;2.39;100.00;101126.75;5015611;28;20044;-51
2022/12/12 08:34:55;;;;;;;56.40;21.17;;;;;;;2.35;100.00;101122.69;5016218;28;20297;-51
2022/12/12 08:37:21;;;;;;;70.60;24.23;;;;;;;1.96;100.00;101126.88;5016121;28;20038;-50
2022/12/12 08:39:47;;;;;;;64.03;22.30;;;;;;;2.10;100.00;101124.84;5015611;28;20113;-50
2022/12/12 08:42:12;;;;;;;63.67;24.83;;;;;;;2.22;100.00;101126.44;5015453;28;20030;-52
2022/12/12 08:44:38;;;;;;;53.13;19.90;;;;;;;2.49;100.00;101124.13;4998555;28;20295;-51
2022/12/12 08:47:03;;;;;;;57.00;22.30;;;;;;;2.88;100.00;101129.50;5015569;28;20275;-51
2022/12/12 08:49:30;;;;;;;62.58;23.80;;;;;;;2.83;100.00;101131.72;5015428;28;20196;-51
2022/12/12 08:51:55;;;;;;;69.23;25.27;;;;;;;2.87;100.00;101136.56;5013862;28;20042;-49
2022/12/12 08:54:21;;;;;;;63.25;22.83;;;;;;;2.97;100.00;101133.09;5015373;28;20037;-55
2022/12/12 08:56:47;;;;;;;73.00;23.37;;;;;;;2.60;100.00;101142.50;5015626;28;20042;-52
2022/12/12 08:59:12;;;;;;;62.43;23.83;;;;;;;2.75;100.00;101139.47;5011694;28;20299;-49
2022/12/12 09:01:39;;;;;;;67.88;24.85;;;;;;;2.73;100.00;101140.44;5012750;28;20035;-51
2022/12/12 09:04:04;;;;;;;63.42;24.08;;;;;;;2.66;100.00;101143.78;5009885;28;20894;-49
2022/12/12 09:06:30;;;;;;;56.73;23.17;;;;;;;2.73;100.00;101135.16;5008896;28;20038;-53
2022/12/12 09:08:56;;;;;;;58.63;22.10;;;;;;;2.80;100.00;101132.00;5011363;28;20295;-53
2022/12/12 09:11:22;;;;;;;59.53;23.42;;;;;;;2.71;100.00;101144.22;5008841;28;20058;-53
2022/12/12 09:13:48;;;;;;;60.97;23.63;;;;;;;2.67;100.00;101141.00;5010431;28;20094;-50
2022/12/12 09:16:14;;;;;;;56.17;22.40;;;;;;;3.14;100.00;101147.44;5012866;28;20093;-51
2022/12/12 09:18:40;;;;;;;65.53;25.02;;;;;;;2.96;100.00;101150.75;5009013;28;20042;-53
2022/12/12 09:21:06;;;;;;;72.43;22.77;;;;;;;3.33;100.00;101148.41;5009074;28;20050;-50
2022/12/12 09:23:31;;;;;;;64.07;22.38;;;;;;;3.55;100.00;101147.25;4996231;28;20061;-53
2022/12/12 09:25:57;;;;;;;59.78;24.95;;;;;;;3.46;100.00;101143.69;5015632;28;20041;-52
2022/12/12 09:28:24;;;;;;;43.53;17.07;;;;;;;3.63;100.00;101133.34;5015436;28;20042;-51
2022/12/12 09:30:51;;;;;;;62.55;24.42;;;;;;;5.00;100.00;101143.28;5015195;28;20046;-53
2022/12/12 09:33:18;;;;;;;60.75;24.02;;;;;;;6.33;100.00;101149.53;5017850;28;20032;-56
2022/12/12 09:35:44;;;;;;;63.35;24.98;;;;;;;7.25;100.00;101155.88;5015672;28;20042;-53
2022/12/12 09:38:09;;;;;;;48.37;20.33;;;;;;;8.09;100.00;101152.97;5014636;28;20034;-51
2022/12/12 09:40:41;;;;;;;52.17;21.50;;;;;;;8.26;100.00;101168.88;5015113;28;20272;-53
2022/12/12 09:43:13;;;;;;;45.75;18.90;;;;;;;8.86;100.00;101156.78;5014622;28;20049;-50
2022/12/12 09:45:39;;;;;;;38.55;17.70;;;;;;;9.22;100.00;101166.06;5013489;28;20553;-54
2022/12/12 09:48:06;;;;;;;42.28;17.67;;;;;;;8.49;100.00;101155.66;5015436;28;20062;-50
2022/12/12 09:50:41;;;;;;;41.30;19.10;;;;;;;9.85;100.00;101159.69;5012291;28;20043;-52
2022/12/12 09:53:11;;;;;;;33.60;16.27;;;;;;;10.68;92.26;101156.91;5014544;28;20042;-51
2022/12/12 09:55:50;;;;;;;38.13;16.77;;;;;;;10.90;87.93;101163.09;5014405;28;20129;-52
2022/12/12 09:58:32;;;;;;;33.17;15.90;;;;;;;10.65;86.44;101165.31;5012880;28;20030;-50
2022/12/12 10:01:39;;;;;;;37.67;16.33;;;;;;;10.82;82.30;101165.06;5013332;28;20507;-50
2022/12/12 10:04:19;;;;;;;45.55;18.25;;;;;;;11.15;79.54;101165.41;5014107;28;20049;-50
2022/12/12 10:07:03;;;;;;;31.92;15.70;;;;;;;11.32;78.09;101149.09;5014180;28;20045;-50
2022/12/12 10:10:21;;;;;;;35.97;15.73;;;;;;;11.87;76.53;101156.50;5014202;28;20038;-51
2022/12/12 10:12:47;;;;;;;34.80;16.20;;;;;;;11.74;73.84;101146.53;4946906;28;20291;-50
2022/12/12 10:15:27;;;;;;;33.33;16.43;;;;;;;12.00;70.71;101150.41;5014720;28;20274;-54
2022/12/12 10:17:56;;;;;;;33.07;16.27;;;;;;;11.12;71.83;101152.41;5013331;28;20038;-53
2022/12/12 10:20:26;;;;;;;34.03;14.90;;;;;;;11.38;74.74;101145.63;5014252;28;20256;-54
2022/12/12 10:23:00;;;;;;;35.90;15.50;;;;;;;11.88;73.17;101145.59;5011791;28;20276;-54
2022/12/12 10:25:44;;;;;;;36.10;16.00;;;;;;;12.27;70.81;101145.22;5010508;28;20272;-51
2022/12/12 10:28:16;;;;;;;30.30;15.57;;;;;;;12.71;69.01;101154.69;5012871;28;20295;-53
2022/12/12 10:30:53;;;;;;;30.37;15.10;;;;;;;12.55;66.46;101157.72;5013179;28;20284;-52
2022/12/12 10:33:46;;;;;;;34.40;15.77;;;;;;;12.32;66.66;101145.44;4996544;28;20264;-50
2022/12/12 10:36:30;;;;;;;35.73;16.87;;;;;;;12.25;66.05;101144.59;5011451;28;20281;-53
2022/12/12 10:39:14;;;;;;;32.80;15.63;;;;;;;12.12;63.04;101148.03;5012395;28;20265;-51
2022/12/12 10:42:21;;;;;;;31.50;15.87;;;;;;;13.53;60.40;101143.03;5011999;28;20303;-50
2022/12/12 10:45:17;;;;;;;24.00;11.90;;;;;;;13.86;56.94;101150.25;5008358;28;20272;-55
2022/12/12 10:47:44;;;;;;;35.40;15.97;;;;;;;14.44;55.00;101142.41;5008317;28;20149;-53
2022/12/12 10:50:09;;;;;;;34.42;16.42;;;;;;;14.51;54.19;101147.72;5009764;28;20280;-51
2022/12/12 10:52:36;;;;;;;30.03;15.50;;;;;;;14.41;54.48;101138.25;5006697;28;20070;-53
2022/12/12 10:55:15;;;;;;;27.87;15.13;;;;;;;14.76;52.49;101135.22;5010934;28;20286;-55
2022/12/12 10:57:40;;;;;;;32.47;15.03;;;;;;;14.72;51.94;101138.56;5011549;28;20311;-53
2022/12/12 11:00:23;;;;;;;33.33;15.47;;;;;;;15.51;49.92;101138.19;5014161;28;20284;-54
2022/12/12 11:02:49;;;;;;;31.93;15.60;;;;;;;15.56;48.87;101132.97;5013419;28;20030;-54
2022/12/12 11:05:27;;;;;;;31.83;15.43;;;;;;;16.07;48.00;101137.47;5013846;28;20343;-53
2022/12/12 11:08:03;;;;;;;30.57;15.10;;;;;;;15.62;48.59;101133.97;5012653;28;20272;-54
2022/12/12 11:10:32;;;;;;;30.98;15.32;;;;;;;16.00;47.45;101124.06;5011934;28;20062;-53
2022/12/12 11:13:14;;;;;;;28.37;14.90;;;;;;;15.66;47.69;101128.94;5013502;28;20038;-54
2022/12/12 11:15:51;;;;;;;31.37;14.57;;;;;;;16.05;47.13;101130.44;5007705;28;20037;-53
2022/12/12 11:18:20;;;;;;;32.83;15.57;;;;;;;16.57;46.40;101128.31;5011727;28;20034;-53
2022/12/12 11:21:10;;;;;;;29.77;14.80;;;;;;;15.97;46.61;101130.72;5011790;28;20034;-53
2022/12/12 11:23:50;;;;;;;31.53;14.07;;;;;;;15.23;48.90;101123.31;5012376;28;20042;-54
2022/12/12 11:26:18;;;;;;;26.67;12.93;;;;;;;15.41;48.74;101124.38;5011620;28;20063;-52
2022/12/12 11:28:51;;;;;;;27.77;14.10;;;;;;;15.45;48.52;101118.34;5012475;28;20061;-50
2022/12/12 11:31:22;;;;;;;26.43;13.77;;;;;;;15.57;48.32;101123.00;5012447;28;20057;-53
2022/12/12 11:33:52;;;;;;;28.73;12.90;;;;;;;15.68;47.57;101132.22;5012870;28;20127;-53
2022/12/12 11:36:22;;;;;;;28.17;13.73;;;;;;;15.20;48.61;101131.81;5013217;28;20026;-52